createdAt,value
2023-03-03T00:01:35.202Z,100936.16
2023-03-03T00:04:03.229Z,100938.00
2023-03-03T00:06:31.443Z,100925.66
2023-03-03T00:08:59.539Z,100929.16
2023-03-03T00:11:31.601Z,100924.78
2023-03-03T00:14:00.017Z,100920.25
2023-03-03T00:16:39.168Z,100915.97
2023-03-03T00:19:27.865Z,100923.91
2023-03-03T00:21:58.964Z,100915.06
2023-03-03T00:24:39.485Z,100913.34
2023-03-03T00:27:36.498Z,100911.44
2023-03-03T00:30:25.807Z,100914.94
2023-03-03T00:32:56.107Z,100907.06
2023-03-03T00:35:28.343Z,100902.75
2023-03-03T00:38:02.247Z,100902.75
2023-03-03T00:40:39.443Z,100905.38
2023-03-03T00:43:21.919Z,100893.03
2023-03-03T00:45:55.251Z,100891.22
2023-03-03T00:48:30.266Z,100895.59
2023-03-03T00:51:00.021Z,100888.66
2023-03-03T00:53:29.955Z,100885.97
2023-03-03T00:55:59.004Z,100885.16
2023-03-03T00:58:31.586Z,100878.13
2023-03-03T01:00:59.995Z,100879.00
2023-03-03T01:03:28.347Z,100879.00
2023-03-03T01:05:56.812Z,100883.44
2023-03-03T01:08:25.606Z,100877.28
2023-03-03T01:10:57.995Z,100880.81
2023-03-03T01:13:33.103Z,100874.72
2023-03-03T01:16:02.097Z,100883.56
2023-03-03T01:18:31.099Z,100887.22
2023-03-03T01:21:00.305Z,100881.00
2023-03-03T01:23:29.593Z,100883.78
2023-03-03T01:25:59.049Z,100882.78
2023-03-03T01:28:27.782Z,100879.34
2023-03-03T01:31:09.925Z,100881.19
2023-03-03T01:33:38.789Z,100871.56
2023-03-03T01:36:08.216Z,100868.91
2023-03-03T01:38:37.623Z,100870.69
2023-03-03T01:41:07.281Z,100860.22
2023-03-03T01:43:44.909Z,100866.31
2023-03-03T01:46:47.562Z,100855.00
2023-03-03T01:49:37.546Z,100852.31
2023-03-03T01:52:13.937Z,100857.66
2023-03-03T01:54:46.227Z,100845.34
2023-03-03T01:57:18.413Z,100848.88
2023-03-03T01:59:49.377Z,100838.41
2023-03-03T02:02:18.016Z,100844.69
2023-03-03T02:04:47.167Z,100838.59
2023-03-03T02:07:15.768Z,100832.59
2023-03-03T02:10:01.923Z,100834.25
2023-03-03T02:12:45.413Z,100833.44
2023-03-03T02:15:18.928Z,100835.31
2023-03-03T02:17:48.623Z,100832.66
2023-03-03T02:20:24.971Z,100825.63
2023-03-03T02:22:59.894Z,100828.41
2023-03-03T02:25:38.236Z,100829.41
2023-03-03T02:28:07.318Z,100824.25
2023-03-03T02:30:39.103Z,100824.25
2023-03-03T02:33:07.731Z,100818.06
2023-03-03T02:35:39.022Z,100819.88
2023-03-03T02:38:38.407Z,100819.84
2023-03-03T02:41:12.309Z,100819.97
2023-03-03T02:43:47.557Z,100810.25
2023-03-03T02:46:15.651Z,100806.88
2023-03-03T02:48:43.916Z,100807.78
2023-03-03T02:51:12.433Z,100807.72
2023-03-03T02:53:41.338Z,100807.72
2023-03-03T02:56:09.957Z,100804.19
2023-03-03T02:58:39.123Z,100802.44
2023-03-03T03:01:11.810Z,100804.72
2023-03-03T03:03:42.778Z,100793.06
2023-03-03T03:06:10.780Z,100804.31
2023-03-03T03:08:39.417Z,100792.72
2023-03-03T03:11:08.065Z,100793.25
2023-03-03T03:13:36.664Z,100778.22
2023-03-03T03:16:09.050Z,100785.03
2023-03-03T03:18:40.268Z,100782.44
2023-03-03T03:21:14.129Z,100777.44
2023-03-03T03:23:42.541Z,100773.31
2023-03-03T03:26:10.877Z,100773.56
2023-03-03T03:28:40.135Z,100766.63
2023-03-03T03:31:09.099Z,100766.84
2023-03-03T03:33:41.992Z,100761.78
2023-03-03T03:36:11.436Z,100754.84
2023-03-03T03:38:39.830Z,100756.59
2023-03-03T03:41:09.457Z,100764.75
2023-03-03T03:43:37.860Z,100757.78
2023-03-03T03:46:06.159Z,100757.78
2023-03-03T03:48:34.936Z,100762.25
2023-03-03T03:51:06.693Z,100760.50
2023-03-03T03:53:36.261Z,100754.47
2023-03-03T03:56:04.282Z,100754.34
2023-03-03T03:58:32.697Z,100753.41
2023-03-03T04:01:05.880Z,100749.13
2023-03-03T04:03:35.438Z,100753.56
2023-03-03T04:06:03.710Z,100760.75
2023-03-03T04:08:35.165Z,100752.81
2023-03-03T04:11:06.817Z,100755.44
2023-03-03T04:13:35.559Z,100759.81
2023-03-03T04:16:03.811Z,100751.91
2023-03-03T04:18:32.564Z,100755.44
2023-03-03T04:21:00.721Z,100757.19
2023-03-03T04:23:29.014Z,100756.28
2023-03-03T04:25:57.144Z,100748.25
2023-03-03T04:28:25.493Z,100760.34
2023-03-03T04:30:54.130Z,100757.56
2023-03-03T04:33:22.341Z,100763.53
2023-03-03T04:35:51.892Z,100753.63
2023-03-03T04:38:20.218Z,100749.78
2023-03-03T04:40:49.096Z,100761.91
2023-03-03T04:43:17.449Z,100752.34
2023-03-03T04:45:46.551Z,100746.50
2023-03-03T04:48:14.729Z,100746.84
2023-03-03T04:50:45.868Z,100746.50
2023-03-03T04:53:18.061Z,100746.41
2023-03-03T04:55:46.138Z,100738.16
2023-03-03T04:58:16.818Z,100745.91
2023-03-03T05:00:44.960Z,100741.09
2023-03-03T05:03:15.920Z,100745.28
2023-03-03T05:05:44.150Z,100750.25
2023-03-03T05:08:13.709Z,100748.25
2023-03-03T05:10:42.186Z,100753.16
2023-03-03T05:13:17.560Z,100747.34
2023-03-03T05:15:51.907Z,100757.19
2023-03-03T05:18:20.731Z,100758.56
2023-03-03T05:20:52.874Z,100757.75
2023-03-03T05:23:21.434Z,100766.78
2023-03-03T05:25:51.365Z,100758.66
2023-03-03T05:28:19.458Z,100761.75
2023-03-03T05:30:49.768Z,100772.72
2023-03-03T05:33:18.823Z,100769.88
2023-03-03T05:35:47.156Z,100771.88
2023-03-03T05:38:17.939Z,100778.31
2023-03-03T05:40:49.460Z,100775.59
2023-03-03T05:43:17.669Z,100772.78
2023-03-03T05:45:48.618Z,100768.13
2023-03-03T05:48:16.767Z,100765.59
2023-03-03T05:50:44.816Z,100766.69
2023-03-03T05:53:13.463Z,100763.69
2023-03-03T05:55:45.216Z,100759.91
2023-03-03T05:58:14.354Z,100772.31
2023-03-03T06:00:45.762Z,100774.06
2023-03-03T06:03:34.827Z,100776.81
2023-03-03T06:06:03.527Z,100770.91
2023-03-03T06:08:34.633Z,100775.75
2023-03-03T06:11:05.867Z,100776.78
2023-03-03T06:13:36.777Z,100772.00
2023-03-03T06:16:05.169Z,100773.84
2023-03-03T06:18:39.232Z,100764.16
2023-03-03T06:21:07.761Z,100768.69
2023-03-03T06:23:35.713Z,100774.19
2023-03-03T06:26:03.737Z,100766.78
2023-03-03T06:28:31.917Z,100761.81
2023-03-03T06:31:00.047Z,100764.91
2023-03-03T06:33:31.618Z,100767.28
2023-03-03T06:36:06.402Z,100760.41
2023-03-03T06:38:34.712Z,100762.66
2023-03-03T06:41:04.882Z,100763.16
2023-03-03T06:43:36.053Z,100768.06
2023-03-03T06:46:06.731Z,100764.84
2023-03-03T06:48:37.118Z,100758.38
2023-03-03T06:51:30.273Z,100765.41
2023-03-03T06:54:02.959Z,100769.00
2023-03-03T06:56:34.571Z,100762.69
2023-03-03T06:59:06.200Z,100767.81
2023-03-03T07:01:38.396Z,100768.88
2023-03-03T07:04:26.300Z,100771.59
2023-03-03T07:06:56.862Z,100761.59
2023-03-03T07:09:27.569Z,100767.84
2023-03-03T07:12:06.495Z,100763.03
2023-03-03T07:14:35.612Z,100759.22
2023-03-03T07:17:07.937Z,100756.22
2023-03-03T07:19:43.594Z,100746.78
2023-03-03T07:22:14.816Z,100747.00
2023-03-03T07:24:44.589Z,100750.47
2023-03-03T07:27:24.408Z,100750.28
2023-03-03T07:29:55.515Z,100755.91
2023-03-03T07:32:41.158Z,100746.41
2023-03-03T07:35:26.175Z,100754.72
2023-03-03T07:37:58.618Z,100750.88
2023-03-03T07:40:40.099Z,100742.81
2023-03-03T07:43:35.663Z,100732.81
2023-03-03T07:46:43.120Z,100734.09
2023-03-03T07:49:24.474Z,100733.25
2023-03-03T07:51:55.738Z,100733.34
2023-03-03T07:54:28.773Z,100728.47
2023-03-03T07:57:27.496Z,100737.25
2023-03-03T08:00:05.040Z,100741.47
2023-03-03T08:02:47.219Z,100725.09
2023-03-03T08:05:37.752Z,100727.44
2023-03-03T08:08:30.448Z,100717.56
2023-03-03T08:11:00.585Z,100722.72
2023-03-03T08:13:35.288Z,100712.06
2023-03-03T08:16:21.887Z,100716.69
2023-03-03T08:18:52.015Z,100716.63
2023-03-03T08:21:26.809Z,100715.78
2023-03-03T08:23:59.860Z,100707.28
2023-03-03T08:26:27.912Z,100698.69
2023-03-03T08:29:01.637Z,100697.75
2023-03-03T08:31:40.854Z,100699.59
2023-03-03T08:34:12.623Z,100694.53
2023-03-03T08:36:44.237Z,100687.91
2023-03-03T08:39:12.619Z,100688.25
2023-03-03T08:41:44.110Z,100683.47
2023-03-03T08:44:12.755Z,100679.69
2023-03-03T08:46:41.562Z,100682.94
2023-03-03T08:49:13.733Z,100683.53
2023-03-03T08:51:44.038Z,100679.09
2023-03-03T08:54:12.163Z,100672.34
2023-03-03T08:56:42.242Z,100675.31
2023-03-03T08:59:11.052Z,100681.34
2023-03-03T09:01:45.082Z,100675.72
2023-03-03T09:04:13.873Z,100674.91
2023-03-03T09:06:44.614Z,100671.25
2023-03-03T09:09:12.842Z,100665.16
2023-03-03T09:11:47.619Z,100667.56
2023-03-03T09:14:18.583Z,100659.56
2023-03-03T09:16:56.915Z,100652.53
2023-03-03T09:19:30.299Z,100649.97
2023-03-03T09:22:27.661Z,100651.28
2023-03-03T09:25:00.895Z,100653.97
2023-03-03T09:27:35.424Z,100639.63
2023-03-03T09:30:17.349Z,100635.31
2023-03-03T09:32:48.480Z,100637.25
2023-03-03T09:35:37.995Z,100633.88
2023-03-03T09:38:25.088Z,100637.41
2023-03-03T09:41:42.660Z,100626.13
2023-03-03T09:44:53.524Z,100620.88
2023-03-03T09:47:27.346Z,100617.72
2023-03-03T09:50:20.674Z,100616.47
2023-03-03T09:52:57.279Z,100609.50
2023-03-03T09:55:55.346Z,100606.06
2023-03-03T09:58:33.028Z,100615.41
2023-03-03T10:01:30.960Z,100615.31
2023-03-03T10:04:13.998Z,100611.09
2023-03-03T10:07:13.655Z,100603.56
2023-03-03T10:09:48.175Z,100601.94
2023-03-03T10:12:25.653Z,100595.91
2023-03-03T10:15:15.498Z,100598.00
2023-03-03T10:17:53.437Z,100594.13
2023-03-03T10:20:49.072Z,100592.59
2023-03-03T10:23:59.045Z,100588.50
2023-03-03T10:27:06.075Z,100579.75
2023-03-03T10:30:00.016Z,100586.44
2023-03-03T10:32:40.274Z,100590.38
2023-03-03T10:35:14.249Z,100589.81
2023-03-03T10:38:23.768Z,100578.03
2023-03-03T10:41:19.685Z,100574.69
2023-03-03T10:43:52.753Z,100569.91
2023-03-03T10:46:31.478Z,100561.59
2023-03-03T10:49:00.022Z,100562.25
2023-03-03T10:52:07.832Z,100557.88
2023-03-03T10:54:42.759Z,100544.31
2023-03-03T10:57:55.354Z,100546.13
2023-03-03T11:00:34.249Z,100540.47
2023-03-03T11:03:23.986Z,100533.91
2023-03-03T11:06:01.340Z,100527.22
2023-03-03T11:08:42.205Z,100521.09
2023-03-03T11:11:35.540Z,100524.63
2023-03-03T11:14:13.849Z,100530.34
2023-03-03T11:16:51.190Z,100524.06
2023-03-03T11:19:34.879Z,100512.09
2023-03-03T11:22:22.147Z,100509.41
2023-03-03T11:25:08.767Z,100507.03
2023-03-03T11:27:49.110Z,100503.19
2023-03-03T11:30:25.745Z,100505.66
2023-03-03T11:33:18.130Z,100501.81
2023-03-03T11:35:52.431Z,100505.59
2023-03-03T11:38:35.098Z,100499.88
2023-03-03T11:41:10.904Z,100499.06
2023-03-03T11:43:45.026Z,100497.78
2023-03-03T11:46:19.651Z,100499.00
2023-03-03T11:48:55.116Z,100490.78
2023-03-03T11:51:43.923Z,100495.56
2023-03-03T11:54:21.138Z,100492.03
2023-03-03T11:56:50.168Z,100496.22
2023-03-03T11:59:56.832Z,100498.53
2023-03-03T12:02:52.170Z,100485.34
2023-03-03T12:05:49.159Z,100491.75
2023-03-03T12:08:36.558Z,100486.81
2023-03-03T12:11:21.655Z,100483.06
2023-03-03T12:14:14.509Z,100484.66
2023-03-03T12:16:53.343Z,100484.97
2023-03-03T12:19:58.832Z,100478.75
2023-03-03T12:22:37.253Z,100490.81
2023-03-03T12:25:37.916Z,100483.53
2023-03-03T12:28:36.628Z,100478.25
2023-03-03T12:31:17.343Z,100486.94
2023-03-03T12:34:00.205Z,100479.09
2023-03-03T12:36:31.240Z,100479.22
2023-03-03T12:39:34.649Z,100472.16
2023-03-03T12:42:25.252Z,100473.59
2023-03-03T12:45:02.497Z,100464.31
2023-03-03T12:47:56.780Z,100466.41
2023-03-03T12:50:56.145Z,100461.91
2023-03-03T12:53:56.072Z,100455.03
2023-03-03T12:56:32.729Z,100457.03
2023-03-03T12:59:05.433Z,100446.22
2023-03-03T13:01:52.131Z,100445.25
2023-03-03T13:04:32.354Z,100446.72
2023-03-03T13:07:15.423Z,100437.84
2023-03-03T13:09:43.448Z,100444.97
2023-03-03T13:12:11.358Z,100423.59
2023-03-03T13:15:16.041Z,100432.88
2023-03-03T13:17:54.718Z,100424.38
2023-03-03T13:20:31.474Z,100425.50
2023-03-03T13:23:25.559Z,100421.31
2023-03-03T13:26:02.143Z,100417.63
2023-03-03T13:28:52.042Z,100420.28
2023-03-03T13:31:25.541Z,100424.47
2023-03-03T13:33:56.299Z,100421.28
2023-03-03T13:36:38.033Z,100413.66
2023-03-03T13:39:15.036Z,100417.28
2023-03-03T13:41:57.433Z,100405.06
2023-03-03T13:44:37.239Z,100403.13
2023-03-03T13:47:14.307Z,100409.59
2023-03-03T13:50:06.169Z,100406.09
2023-03-03T13:53:03.454Z,100399.13
2023-03-03T13:56:07.481Z,100391.41
2023-03-03T13:58:47.461Z,100390.09
2023-03-03T14:01:22.693Z,100392.25
2023-03-03T14:04:11.483Z,100384.41
2023-03-03T14:06:41.228Z,100382.84
2023-03-03T14:09:35.070Z,100378.16
2023-03-03T14:12:19.190Z,100375.13
2023-03-03T14:15:06.330Z,100370.81
2023-03-03T14:18:26.475Z,100367.66
2023-03-03T14:21:01.642Z,100371.06
2023-03-03T14:23:51.437Z,100360.50
2023-03-03T14:26:19.394Z,100367.81
2023-03-03T14:28:52.697Z,100358.53
2023-03-03T14:31:34.547Z,100348.91
2023-03-03T14:34:23.283Z,100357.94
2023-03-03T14:36:56.163Z,100354.56
2023-03-03T14:39:36.104Z,100354.94
2023-03-03T14:42:17.991Z,100350.88
2023-03-03T14:44:51.606Z,100350.28
2023-03-03T14:47:24.528Z,100351.41
2023-03-03T14:49:55.416Z,100352.00
2023-03-03T14:52:29.255Z,100350.34
2023-03-03T14:55:01.363Z,100352.34
2023-03-03T14:57:40.611Z,100343.72
2023-03-03T15:00:25.734Z,100342.97
2023-03-03T15:03:06.949Z,100352.25
2023-03-03T15:05:34.953Z,100353.34
2023-03-03T15:08:06.388Z,100345.47
2023-03-03T15:10:42.108Z,100346.56
2023-03-03T15:13:23.961Z,100349.06
2023-03-03T15:15:59.958Z,100350.84
2023-03-03T15:18:35.800Z,100347.31
2023-03-03T15:21:33.649Z,100339.09
2023-03-03T15:24:19.484Z,100346.97
2023-03-03T15:26:59.424Z,100351.69
2023-03-03T15:29:36.074Z,100349.78
2023-03-03T15:32:11.993Z,100355.31
2023-03-03T15:35:00.805Z,100362.25
2023-03-03T15:37:52.991Z,100352.66
2023-03-03T15:40:30.921Z,100355.47
2023-03-03T15:43:14.483Z,100360.19
2023-03-03T15:46:00.722Z,100361.97
2023-03-03T15:48:38.579Z,100359.31
2023-03-03T15:51:13.138Z,100361.91
2023-03-03T15:54:10.897Z,100362.75
2023-03-03T15:56:49.275Z,100352.44
2023-03-03T15:59:31.334Z,100352.34
2023-03-03T16:02:21.188Z,100352.09
2023-03-03T16:05:17.161Z,100354.22
2023-03-03T16:07:58.035Z,100357.78
2023-03-03T16:10:35.562Z,100357.06
2023-03-03T16:13:22.785Z,100363.41
2023-03-03T16:16:06.118Z,100360.66
2023-03-03T16:19:07.360Z,100344.69
2023-03-03T16:21:47.471Z,100351.81
2023-03-03T16:24:46.875Z,100349.16
2023-03-03T16:27:24.945Z,100355.28
2023-03-03T16:30:09.221Z,100351.75
2023-03-03T16:32:46.354Z,100348.44
2023-03-03T16:35:14.780Z,100345.72
2023-03-03T16:38:01.255Z,100346.44
2023-03-03T16:40:39.555Z,100342.00
2023-03-03T16:43:32.998Z,100334.28
2023-03-03T16:46:34.886Z,100336.25
2023-03-03T16:49:06.761Z,100338.28
2023-03-03T16:51:40.322Z,100332.66
2023-03-03T16:54:27.486Z,100324.47
2023-03-03T16:57:20.442Z,100328.09
2023-03-03T17:00:17.279Z,100328.09
2023-03-03T17:03:06.252Z,100330.69
2023-03-03T17:05:45.583Z,100312.91
2023-03-03T17:08:42.094Z,100325.38
2023-03-03T17:11:33.087Z,100321.91
2023-03-03T17:14:20.858Z,100315.88
2023-03-03T17:16:57.589Z,100311.59
2023-03-03T17:19:47.353Z,100322.00
2023-03-03T17:22:55.611Z,100315.88
2023-03-03T17:25:31.929Z,100307.91
2023-03-03T17:28:19.192Z,100311.41
2023-03-03T17:31:30.924Z,100310.56
2023-03-03T17:34:21.548Z,100311.34
2023-03-03T17:36:59.467Z,100313.06
2023-03-03T17:39:42.212Z,100306.09
2023-03-03T17:42:25.829Z,100303.38
2023-03-03T17:45:16.947Z,100299.91
2023-03-03T17:47:57.456Z,100302.81
2023-03-03T17:50:32.121Z,100307.03
2023-03-03T17:53:18.602Z,100304.63
2023-03-03T17:56:08.068Z,100308.94
2023-03-03T17:59:02.765Z,100312.63
2023-03-03T18:01:49.117Z,100302.81
2023-03-03T18:04:47.913Z,100302.81
2023-03-03T18:07:16.509Z,100299.31
2023-03-03T18:09:55.324Z,100302.91
2023-03-03T18:12:33.207Z,100295.06
2023-03-03T18:15:19.916Z,100295.88
2023-03-03T18:18:04.276Z,100300.94
2023-03-03T18:20:56.600Z,100290.38
2023-03-03T18:23:42.132Z,100292.25
2023-03-03T18:26:39.582Z,100296.72
2023-03-03T18:29:18.657Z,100292.56
2023-03-03T18:32:05.217Z,100292.41
2023-03-03T18:34:46.992Z,100282.38
2023-03-03T18:37:30.255Z,100284.19
2023-03-03T18:40:05.681Z,100277.16
2023-03-03T18:42:38.583Z,100276.28
2023-03-03T18:45:19.733Z,100275.00
2023-03-03T18:48:13.159Z,100280.31
2023-03-03T18:50:51.052Z,100285.75
2023-03-03T18:53:26.869Z,100279.47
2023-03-03T18:56:02.956Z,100283.06
2023-03-03T18:58:42.134Z,100284.53
2023-03-03T19:01:32.471Z,100283.69
2023-03-03T19:04:18.436Z,100286.19
2023-03-03T19:06:50.133Z,100293.22
2023-03-03T19:09:50.988Z,100288.69
2023-03-03T19:12:45.066Z,100283.69
2023-03-03T19:15:36.024Z,100285.44
2023-03-03T19:18:40.324Z,100288.31
2023-03-03T19:21:11.921Z,100289.25
2023-03-03T19:24:02.980Z,100289.44
2023-03-03T19:26:46.348Z,100283.31
2023-03-03T19:29:22.833Z,100280.06
2023-03-03T19:32:13.278Z,100271.22
2023-03-03T19:34:56.151Z,100276.69
2023-03-03T19:37:49.239Z,100270.41
2023-03-03T19:40:37.606Z,100272.38
2023-03-03T19:43:32.390Z,100280.56
2023-03-03T19:46:35.814Z,100280.63
2023-03-03T19:49:36.711Z,100278.03
2023-03-03T19:52:29.128Z,100267.66
2023-03-03T19:55:20.160Z,100278.03
2023-03-03T19:58:05.451Z,100272.16
2023-03-03T20:00:47.659Z,100276.50
2023-03-03T20:03:31.971Z,100288.78
2023-03-03T20:06:32.138Z,100278.03
2023-03-03T20:09:11.213Z,100273.56
2023-03-03T20:11:59.594Z,100277.25
2023-03-03T20:14:45.951Z,100259.66
2023-03-03T20:17:45.476Z,100269.44
2023-03-03T20:21:08.642Z,100267.50
2023-03-03T20:24:00.258Z,100263.88
2023-03-03T20:26:43.079Z,100263.28
2023-03-03T20:29:54.820Z,100264.03
2023-03-03T20:32:43.451Z,100266.78
2023-03-03T20:35:38.292Z,100261.38
2023-03-03T20:38:39.643Z,100264.13
2023-03-03T20:41:48.313Z,100265.03
2023-03-03T20:44:34.839Z,100250.88
2023-03-03T20:47:14.834Z,100245.66
2023-03-03T20:49:56.574Z,100246.50
2023-03-03T20:53:02.545Z,100245.56
2023-03-03T20:55:58.660Z,100240.19
2023-03-03T20:58:51.902Z,100232.19
2023-03-03T21:01:39.443Z,100240.22
2023-03-03T21:04:28.052Z,100230.69
2023-03-03T21:06:56.681Z,100238.78
2023-03-03T21:09:35.154Z,100236.13
2023-03-03T21:12:39.625Z,100232.69
2023-03-03T21:15:31.689Z,100233.69
2023-03-03T21:18:19.672Z,100232.84
2023-03-03T21:20:48.196Z,100238.22
2023-03-03T21:23:17.580Z,100234.00
2023-03-03T21:25:53.183Z,100232.28
2023-03-03T21:28:23.139Z,100233.00
2023-03-03T21:31:09.884Z,100238.47
2023-03-03T21:33:45.123Z,100232.22
2023-03-03T21:36:23.934Z,100226.97
2023-03-03T21:38:54.355Z,100233.09
2023-03-03T21:41:22.456Z,100231.34
2023-03-03T21:43:53.002Z,100227.44
2023-03-03T21:46:24.862Z,100221.34
2023-03-03T21:49:33.908Z,100219.69
2023-03-03T21:52:02.694Z,100224.06
2023-03-03T21:54:30.991Z,100213.41
2023-03-03T21:56:59.260Z,100210.75
2023-03-03T21:59:29.567Z,100213.41
2023-03-03T22:01:58.226Z,100207.25
2023-03-03T22:04:27.572Z,100214.06
2023-03-03T22:06:55.868Z,100216.72
2023-03-03T22:09:24.376Z,100206.22
2023-03-03T22:11:52.804Z,100208.91
2023-03-03T22:14:29.484Z,100203.56
2023-03-03T22:16:58.912Z,100204.34
2023-03-03T22:19:29.548Z,100194.63
2023-03-03T22:21:58.512Z,100192.94
2023-03-03T22:24:26.794Z,100191.13
2023-03-03T22:26:55.465Z,100206.22
2023-03-03T22:29:23.784Z,100195.75
2023-03-03T22:31:52.484Z,100199.41
2023-03-03T22:34:23.182Z,100194.97
2023-03-03T22:36:53.907Z,100203.81
2023-03-03T22:39:22.896Z,100185.25
2023-03-03T22:41:51.395Z,100188.25
2023-03-03T22:44:19.626Z,100188.34
2023-03-03T22:46:47.943Z,100186.56
2023-03-03T22:49:16.123Z,100198.03
2023-03-03T22:51:44.250Z,100185.50
2023-03-03T22:54:12.921Z,100193.69
2023-03-03T22:56:44.608Z,100201.56
2023-03-03T22:59:12.631Z,100196.16
2023-03-03T23:01:41.449Z,100199.00
2023-03-03T23:04:12.582Z,100203.28
2023-03-03T23:06:40.780Z,100202.31
2023-03-03T23:09:12.143Z,100203.28
2023-03-03T23:11:41.283Z,100192.63
2023-03-03T23:14:09.265Z,100189.03
2023-03-03T23:19:31.146Z,100197.09
2023-03-03T23:21:59.456Z,100193.59
2023-03-03T23:24:27.718Z,100189.97
2023-03-03T23:27:12.006Z,100191.78
2023-03-03T23:29:43.852Z,100182.25
2023-03-03T23:32:12.239Z,100190.22
2023-03-03T23:34:45.754Z,100190.06
2023-03-03T23:37:16.386Z,100187.47
2023-03-03T23:39:53.881Z,100178.81
2023-03-03T23:42:22.723Z,100179.81
2023-03-03T23:44:51.369Z,100169.03
2023-03-03T23:47:19.340Z,100179.56
2023-03-03T23:49:47.335Z,100175.81
2023-03-03T23:52:18.609Z,100172.16
2023-03-03T23:54:46.602Z,100165.94
2023-03-03T23:57:14.883Z,100168.44
2023-03-03T23:59:43.466Z,100168.38
